Time;durP1;ratioP1;P1;durP2;ratioP2;P2;SDS_P1;SDS_P2;PMS_P1;PMS_P2;Temp;Humidity;BMP_temperature;BMP_pressure;BME280_temperature;BME280_humidity;BME280_pressure;Samples;Min_cycle;Max_cycle;Signal;HPM_P1;HPM_P2
2021/08/17 00:07:01;;;;;;;11.55;5.90;;;;;;;19.16;42.24;94871.22;5072324;27;20149;-64
2021/08/17 00:09:29;;;;;;;8.32;5.13;;;;;;;19.23;41.57;94871.66;5078601;28;20040;-65
2021/08/17 00:11:55;;;;;;;11.80;6.47;;;;;;;19.28;41.60;94868.94;5078308;28;20078;-64
2021/08/17 00:14:22;;;;;;;9.05;5.00;;;;;;;19.40;41.08;94873.00;5076938;28;20161;-64
2021/08/17 00:16:49;;;;;;;6.38;5.03;;;;;;;19.46;41.04;94879.78;5080656;28;20067;-65
2021/08/17 00:19:16;;;;;;;8.82;4.75;;;;;;;19.51;41.07;94877.06;5076834;28;20044;-64
2021/08/17 00:21:43;;;;;;;8.10;5.68;;;;;;;19.57;41.27;94875.94;5079662;28;20044;-65
2021/08/17 00:24:09;;;;;;;7.32;5.55;;;;;;;19.52;40.89;94868.09;5074941;28;20072;-65
2021/08/17 00:26:36;;;;;;;9.07;5.35;;;;;;;19.59;40.34;94873.81;5076816;28;20043;-64
2021/08/17 00:29:03;;;;;;;9.40;4.97;;;;;;;19.55;40.16;94867.50;5079129;28;20745;-64
2021/08/17 00:31:30;;;;;;;8.52;5.50;;;;;;;19.64;40.90;94871.09;5075010;28;20037;-64
2021/08/17 00:33:57;;;;;;;6.95;5.38;;;;;;;19.61;41.20;94866.38;5076521;28;20102;-64
2021/08/17 00:36:24;;;;;;;7.43;5.53;;;;;;;19.58;41.00;94866.94;5076667;28;20051;-64
2021/08/17 00:38:50;;;;;;;16.55;5.47;;;;;;;19.56;41.54;94858.50;5078852;28;20471;-64
2021/08/17 00:41:17;;;;;;;12.55;5.45;;;;;;;19.63;40.79;94864.22;5079159;28;21128;-64
2021/08/17 00:43:44;;;;;;;11.40;5.68;;;;;;;19.62;40.91;94867.91;5074976;28;20040;-64
2021/08/17 00:46:12;;;;;;;9.25;4.82;;;;;;;19.60;41.66;94870.06;5077828;28;20040;-65
2021/08/17 00:48:42;;;;;;;15.52;5.72;;;;;;;19.63;41.25;94861.56;5077449;28;20868;-64
2021/08/17 00:51:09;;;;;;;8.88;4.85;;;;;;;19.64;41.01;94865.81;5076033;28;20044;-64
2021/08/17 00:53:36;;;;;;;14.10;5.40;;;;;;;19.63;41.33;94858.94;5074924;28;20040;-64
2021/08/17 00:56:05;;;;;;;11.90;5.70;;;;;;;19.66;41.51;94861.00;5081630;28;20051;-64
2021/08/17 00:58:32;;;;;;;11.73;5.18;;;;;;;19.60;41.48;94853.44;5073966;28;20048;-65
2021/08/17 01:00:59;;;;;;;11.77;5.68;;;;;;;19.57;41.91;94849.53;5075337;28;20041;-64
2021/08/17 01:03:27;;;;;;;8.57;5.82;;;;;;;19.54;41.36;94859.88;5078597;28;20048;-64
2021/08/17 01:05:58;;;;;;;12.05;6.00;;;;;;;19.49;40.83;94847.53;5077097;28;20059;-65
2021/08/17 01:08:27;;;;;;;8.52;5.25;;;;;;;19.61;41.49;94855.81;5078792;28;20040;-64
2021/08/17 01:10:54;;;;;;;5.88;4.50;;;;;;;19.65;41.02;94856.78;5078819;28;20055;-64
2021/08/17 01:13:23;;;;;;;10.45;5.82;;;;;;;19.52;41.51;94854.88;5073777;28;20040;-64
2021/08/17 01:15:52;;;;;;;6.03;5.28;;;;;;;19.24;41.92;94841.53;5079512;28;20047;-65
2021/08/17 01:18:19;;;;;;;14.05;5.60;;;;;;;19.22;41.80;94843.66;5063942;28;20096;-65
2021/08/17 01:20:49;;;;;;;7.05;5.18;;;;;;;19.25;42.35;94853.66;5065084;28;20032;-64
2021/08/17 01:23:18;;;;;;;8.75;5.65;;;;;;;19.19;42.34;94859.28;5064936;28;20056;-64
2021/08/17 01:25:45;;;;;;;9.15;5.15;;;;;;;19.18;43.31;94858.50;5063513;28;20029;-64
2021/08/17 01:28:13;;;;;;;13.40;5.00;;;;;;;19.17;43.14;94850.88;5063444;28;20055;-64
2021/08/17 01:30:39;;;;;;;8.00;5.13;;;;;;;19.19;43.28;94846.09;5062157;28;20044;-65
2021/08/17 01:33:06;;;;;;;5.68;4.88;;;;;;;19.23;42.81;94850.53;5063778;28;20505;-65
2021/08/17 01:35:33;;;;;;;8.80;5.05;;;;;;;19.10;43.13;94851.22;5063461;28;20390;-65
2021/08/17 01:38:05;;;;;;;11.02;4.80;;;;;;;19.08;43.86;94848.06;5059392;28;20037;-65
2021/08/17 01:40:32;;;;;;;5.75;4.50;;;;;;;19.22;43.39;94845.53;5062225;28;20582;-64
2021/08/17 01:42:59;;;;;;;5.22;4.65;;;;;;;19.18;44.29;94850.59;5062811;28;20036;-64
2021/08/17 01:45:26;;;;;;;9.88;5.20;;;;;;;19.18;43.67;94847.94;5063854;28;20032;-65
2021/08/17 01:47:53;;;;;;;6.80;5.05;;;;;;;19.21;44.36;94847.38;5061544;28;20056;-65
2021/08/17 01:50:23;;;;;;;6.93;6.00;;;;;;;19.06;45.05;94837.03;5063775;28;20111;-64
2021/08/17 01:52:49;;;;;;;6.70;5.15;;;;;;;19.01;45.51;94834.44;5064342;28;20538;-65
2021/08/17 01:55:16;;;;;;;6.25;5.10;;;;;;;19.09;44.61;94847.03;5064361;28;20045;-65
2021/08/17 01:57:43;;;;;;;5.45;4.60;;;;;;;19.02;45.31;94839.44;5063223;28;20098;-64
2021/08/17 02:00:11;;;;;;;7.03;4.15;;;;;;;18.99;45.85;94853.19;5062607;28;20057;-61
2021/08/17 02:02:39;;;;;;;8.52;4.80;;;;;;;19.03;45.80;94851.59;5062994;28;20051;-62
2021/08/17 02:05:08;;;;;;;9.43;4.65;;;;;;;19.00;46.17;94848.72;5064736;28;20041;-61
2021/08/17 02:07:35;;;;;;;6.95;4.88;;;;;;;19.00;46.59;94846.09;5058415;28;20505;-62
2021/08/17 02:10:04;;;;;;;6.60;4.72;;;;;;;18.98;46.90;94840.28;5057542;28;20044;-62
2021/08/17 02:12:31;;;;;;;16.23;5.50;;;;;;;18.91;47.28;94844.06;5059643;28;20044;-62
2021/08/17 02:14:58;;;;;;;12.68;5.38;;;;;;;18.85;47.77;94845.19;5057788;28;20040;-62
2021/08/17 02:17:24;;;;;;;16.15;5.60;;;;;;;18.79;47.99;94850.78;5054224;28;20036;-62
2021/08/17 02:19:51;;;;;;;12.48;4.88;;;;;;;18.73;48.29;94842.16;5055226;28;20398;-62
2021/08/17 02:22:18;;;;;;;13.23;5.40;;;;;;;18.73;47.44;94844.78;5055419;28;20090;-62
2021/08/17 02:24:45;;;;;;;8.30;5.03;;;;;;;18.76;47.99;94838.94;5057758;28;20048;-63
2021/08/17 02:27:11;;;;;;;9.85;6.30;;;;;;;18.73;47.56;94842.16;5060867;28;20037;-61
2021/08/17 02:29:38;;;;;;;8.50;5.03;;;;;;;18.74;47.94;94843.69;5055446;28;20028;-62
2021/08/17 02:32:05;;;;;;;15.93;7.10;;;;;;;18.78;48.21;94847.38;5055033;28;20421;-62
2021/08/17 02:34:32;;;;;;;22.38;5.97;;;;;;;18.77;47.66;94848.44;5063657;28;20037;-62
2021/08/17 02:36:59;;;;;;;16.90;6.60;;;;;;;18.75;47.87;94850.56;5055379;28;20506;-62
2021/08/17 02:39:25;;;;;;;9.40;5.30;;;;;;;18.70;48.33;94847.97;5056875;28;20044;-62
2021/08/17 02:41:52;;;;;;;9.63;5.13;;;;;;;18.69;47.55;94849.84;5059730;28;20669;-63
2021/08/17 02:44:19;;;;;;;10.80;4.55;;;;;;;18.65;47.58;94848.03;5056471;28;20170;-62
2021/08/17 02:46:46;;;;;;;6.60;5.05;;;;;;;18.64;48.03;94846.47;5059454;28;20067;-62
2021/08/17 02:49:13;;;;;;;7.20;5.15;;;;;;;18.66;48.02;94852.25;5056705;28;20052;-62
2021/08/17 02:51:40;;;;;;;9.15;4.70;;;;;;;18.64;48.66;94843.84;5060643;28;20053;-62
2021/08/17 02:54:06;;;;;;;6.68;4.97;;;;;;;18.61;48.53;94849.66;5055998;28;20063;-62
2021/08/17 02:56:33;;;;;;;11.80;5.50;;;;;;;18.62;48.74;94845.94;5060214;28;20123;-62
2021/08/17 02:59:00;;;;;;;8.75;5.90;;;;;;;18.56;49.33;94841.81;5058848;28;20048;-63
2021/08/17 03:01:27;;;;;;;7.28;5.28;;;;;;;18.60;49.43;94848.09;5058514;28;20045;-62
2021/08/17 03:03:54;;;;;;;9.50;5.15;;;;;;;18.57;49.53;94838.13;5056387;28;20079;-62
2021/08/17 03:06:20;;;;;;;8.18;4.88;;;;;;;18.54;49.48;94840.22;5053685;28;20509;-62
2021/08/17 03:08:47;;;;;;;6.35;4.90;;;;;;;18.45;50.07;94831.34;5058176;28;20058;-62
2021/08/17 03:11:14;;;;;;;7.90;5.60;;;;;;;18.36;51.09;94833.03;5058910;28;20154;-62
2021/08/17 03:13:41;;;;;;;7.07;5.70;;;;;;;18.28;50.66;94847.63;5055361;28;20041;-62
2021/08/17 03:16:08;;;;;;;7.25;4.93;;;;;;;18.32;50.17;94842.59;5057168;28;20460;-65
2021/08/17 03:18:35;;;;;;;9.32;5.63;;;;;;;18.29;50.28;94846.56;5057189;28;20493;-64
2021/08/17 03:21:02;;;;;;;8.07;5.00;;;;;;;18.20;50.46;94839.53;5060001;28;20501;-65
2021/08/17 03:23:28;;;;;;;5.97;4.47;;;;;;;18.22;50.31;94842.66;5054779;28;20053;-65
2021/08/17 03:25:55;;;;;;;6.65;4.72;;;;;;;18.07;50.74;94828.56;5056682;28;20048;-64
2021/08/17 03:28:22;;;;;;;8.43;5.18;;;;;;;18.10;50.93;94851.75;5059839;28;20477;-65
2021/08/17 03:30:49;;;;;;;9.40;4.85;;;;;;;18.13;50.99;94840.66;5056077;28;20536;-64
2021/08/17 03:33:17;;;;;;;10.45;5.38;;;;;;;18.14;50.76;94847.47;5056033;28;20473;-64
2021/08/17 03:35:44;;;;;;;11.43;5.30;;;;;;;18.09;50.97;94850.16;5058183;28;20055;-64
2021/08/17 03:38:11;;;;;;;12.68;5.60;;;;;;;18.07;51.09;94852.28;5059519;28;20041;-64
2021/08/17 03:40:37;;;;;;;10.18;5.30;;;;;;;17.99;51.52;94845.00;5055434;28;20045;-65
2021/08/17 03:43:04;;;;;;;13.23;5.05;;;;;;;18.03;51.93;94850.50;5057104;28;20040;-65
2021/08/17 03:45:31;;;;;;;10.05;4.70;;;;;;;18.00;51.52;94845.78;5060958;28;20055;-64
2021/08/17 03:47:58;;;;;;;11.52;4.78;;;;;;;17.88;51.81;94836.41;5058526;28;20437;-65
2021/08/17 03:50:25;;;;;;;9.55;4.78;;;;;;;17.89;52.08;94845.84;5054107;28;20055;-64
2021/08/17 03:52:51;;;;;;;11.02;4.85;;;;;;;18.00;51.62;94846.56;5058028;28;20052;-64
2021/08/17 03:55:19;;;;;;;8.55;4.90;;;;;;;18.02;52.23;94854.97;5057208;28;20056;-64
2021/08/17 03:57:47;;;;;;;12.65;4.93;;;;;;;18.06;51.52;94844.66;5056585;28;20037;-65
2021/08/17 04:00:20;;;;;;;19.35;5.70;;;;;;;18.06;51.29;94840.19;5055123;28;20110;-65
2021/08/17 04:02:47;;;;;;;11.73;4.82;;;;;;;18.14;51.45;94842.22;5057679;28;20055;-64
2021/08/17 04:05:14;;;;;;;22.50;5.30;;;;;;;18.15;50.88;94843.78;5057459;28;20049;-65
2021/08/17 04:07:41;;;;;;;7.35;4.78;;;;;;;18.23;51.41;94844.25;5059497;28;20037;-65
2021/08/17 04:10:08;;;;;;;7.45;4.88;;;;;;;18.26;51.45;94838.44;5055945;28;20055;-65
2021/08/17 04:12:36;;;;;;;7.60;4.97;;;;;;;18.33;51.79;94844.16;5058252;28;20044;-64
2021/08/17 04:15:04;;;;;;;17.35;6.85;;;;;;;18.29;51.62;94827.31;5059199;28;20097;-65
2021/08/17 04:17:31;;;;;;;10.77;4.88;;;;;;;18.37;51.78;94834.63;5059633;28;20037;-65
2021/08/17 04:19:58;;;;;;;11.90;5.60;;;;;;;18.41;51.12;94846.19;5057635;28;20048;-65
2021/08/17 04:22:25;;;;;;;8.82;4.60;;;;;;;18.46;50.32;94838.22;5059412;28;20052;-65
2021/08/17 04:24:52;;;;;;;12.02;5.07;;;;;;;18.53;50.64;94843.16;5059104;28;20057;-65
2021/08/17 04:27:19;;;;;;;8.52;5.57;;;;;;;18.56;50.06;94841.81;5057454;28;20048;-65
2021/08/17 04:29:46;;;;;;;10.00;5.15;;;;;;;18.57;49.94;94832.84;5058544;28;20036;-65
2021/08/17 04:32:13;;;;;;;11.10;5.00;;;;;;;18.66;50.08;94836.44;5059374;28;20045;-64
2021/08/17 04:34:40;;;;;;;7.95;4.53;;;;;;;18.73;49.72;94842.16;5058842;28;20049;-64
2021/08/17 04:37:07;;;;;;;11.48;5.13;;;;;;;18.79;50.24;94838.38;5062608;28;20040;-65
2021/08/17 04:39:34;;;;;;;15.32;5.50;;;;;;;18.83;50.82;94831.47;5058448;28;20040;-62
2021/08/17 04:42:02;;;;;;;17.90;5.00;;;;;;;18.90;50.46;94837.19;5063616;28;20044;-62
2021/08/17 04:44:32;;;;;;;16.08;5.07;;;;;;;18.93;49.97;94835.09;5059694;28;20059;-62
2021/08/17 04:46:59;;;;;;;19.15;6.97;;;;;;;18.95;50.58;94832.94;5058579;28;20045;-62
2021/08/17 04:49:26;;;;;;;15.60;5.05;;;;;;;19.01;50.49;94837.06;5061941;28;20036;-62
2021/08/17 04:51:53;;;;;;;12.60;5.00;;;;;;;19.09;50.27;94836.47;5060154;28;20072;-62
2021/08/17 04:54:24;;;;;;;13.65;5.72;;;;;;;19.17;51.43;94840.31;5063922;28;20145;-62
2021/08/17 04:56:51;;;;;;;13.43;4.70;;;;;;;19.26;51.22;94839.38;5060648;28;20044;-63
2021/08/17 04:59:17;;;;;;;8.82;4.35;;;;;;;19.32;51.63;94839.31;5064456;28;20051;-63
2021/08/17 05:01:44;;;;;;;12.18;4.63;;;;;;;19.42;51.08;94839.19;5065398;28;20052;-66
2021/08/17 05:04:11;;;;;;;7.85;4.00;;;;;;;19.51;51.50;94837.44;5062673;28;20090;-64
2021/08/17 05:06:38;;;;;;;8.90;4.70;;;;;;;19.60;51.04;94832.31;5062115;28;20062;-63
2021/08/17 05:09:05;;;;;;;10.23;4.47;;;;;;;19.67;50.81;94833.50;5060362;28;20417;-63
2021/08/17 05:11:32;;;;;;;7.72;3.92;;;;;;;19.75;50.62;94837.38;5060932;28;20044;-63
2021/08/17 05:13:58;;;;;;;9.93;4.90;;;;;;;19.87;50.36;94839.56;5062783;28;20044;-64
2021/08/17 05:16:25;;;;;;;8.88;4.50;;;;;;;19.95;50.23;94838.94;5062280;28;20054;-63
2021/08/17 05:18:52;;;;;;;8.20;3.90;;;;;;;20.05;50.23;94844.03;5059025;28;20055;-64
2021/08/17 05:21:21;;;;;;;6.95;3.95;;;;;;;20.14;49.36;94840.72;5062300;28;20041;-64
2021/08/17 05:23:50;;;;;;;8.88;4.30;;;;;;;20.27;49.05;94841.81;5060597;28;20033;-63
2021/08/17 05:26:18;;;;;;;9.25;4.53;;;;;;;20.36;48.97;94843.50;5062125;28;20044;-64
2021/08/17 05:28:44;;;;;;;8.85;4.05;;;;;;;20.49;48.57;94836.66;5064474;28;20056;-65
2021/08/17 05:31:11;;;;;;;8.00;4.03;;;;;;;20.58;47.91;94836.75;5062933;28;20513;-64
2021/08/17 05:33:38;;;;;;;17.30;5.05;;;;;;;20.75;48.53;94838.84;5060438;28;21594;-65
2021/08/17 05:36:05;;;;;;;9.82;4.05;;;;;;;20.87;48.55;94835.69;5063008;28;20467;-64
2021/08/17 05:38:32;;;;;;;5.68;3.92;;;;;;;21.02;47.63;94832.75;5064640;28;20098;-65
2021/08/17 05:40:59;;;;;;;11.30;4.70;;;;;;;21.09;47.06;94822.53;5058401;28;20040;-64
2021/08/17 05:43:25;;;;;;;6.25;3.63;;;;;;;21.27;46.89;94833.28;5064568;28;20398;-64
2021/08/17 05:46:05;;;;;;;6.90;4.25;;;;;;;21.39;46.42;94830.88;5066699;28;20126;-65
2021/08/17 05:48:38;;;;;;;;;;;;;;;21.52;46.34;94832.75;5057812;28;20480;-64
2021/08/17 05:51:05;;;;;;;4.50;3.78;;;;;;;21.58;46.38;94834.19;5058335;28;20382;-65
2021/08/17 05:53:32;;;;;;;8.88;3.90;;;;;;;21.67;45.42;94825.53;5063132;28;20053;-64
2021/08/17 05:55:59;;;;;;;8.45;4.60;;;;;;;21.86;45.45;94839.38;5063663;28;20044;-65
2021/08/17 05:58:25;;;;;;;7.38;3.88;;;;;;;21.98;45.62;94836.19;5064229;28;20041;-65
2021/08/17 06:00:52;;;;;;;9.05;4.13;;;;;;;22.10;44.99;94843.59;5065504;28;20436;-64
2021/08/17 06:03:19;;;;;;;9.75;4.60;;;;;;;22.27;44.71;94838.41;5061681;28;20112;-65
2021/08/17 06:05:46;;;;;;;8.48;4.78;;;;;;;22.46;44.07;94845.34;5062035;28;20509;-64
2021/08/17 06:08:13;;;;;;;7.45;4.10;;;;;;;22.57;43.36;94836.03;5058855;28;20401;-64
2021/08/17 06:10:41;;;;;;;10.15;4.13;;;;;;;22.66;43.57;94842.16;5060337;28;20036;-64
2021/08/17 06:13:08;;;;;;;15.73;4.05;;;;;;;22.78;42.43;94840.78;5062540;28;20041;-64
2021/08/17 06:15:34;;;;;;;5.85;3.92;;;;;;;22.93;43.06;94837.72;5063712;28;20536;-64
2021/08/17 06:18:03;;;;;;;14.38;4.00;;;;;;;23.10;41.92;94836.97;5063715;28;20060;-64
2021/08/17 06:20:31;;;;;;;7.90;3.65;;;;;;;23.18;42.09;94844.19;5063238;28;20048;-64
2021/08/17 06:22:58;;;;;;;10.98;4.28;;;;;;;23.31;43.35;94841.72;5060109;28;20045;-64
2021/08/17 06:25:25;;;;;;;16.83;4.53;;;;;;;23.41;41.49;94842.19;5062303;28;20048;-64
2021/08/17 06:27:52;;;;;;;7.95;4.55;;;;;;;23.55;41.15;94838.59;5060822;28;20036;-64
2021/08/17 06:30:20;;;;;;;10.40;4.22;;;;;;;23.60;41.09;94833.13;5063317;28;20052;-64
2021/08/17 06:32:54;;;;;;;6.95;4.03;;;;;;;23.72;40.34;94838.59;5063209;28;20053;-64
2021/08/17 06:35:21;;;;;;;13.70;4.57;;;;;;;23.73;40.16;94837.47;5062427;28;20051;-64
2021/08/17 06:37:48;;;;;;;11.05;4.28;;;;;;;23.83;39.54;94837.19;5061650;28;20045;-63
2021/08/17 06:40:15;;;;;;;11.35;3.97;;;;;;;23.96;40.47;94829.34;5061321;28;20500;-64
2021/08/17 06:42:42;;;;;;;7.95;3.47;;;;;;;24.11;40.40;94831.53;5063717;28;20063;-63
2021/08/17 06:45:10;;;;;;;6.78;3.80;;;;;;;24.24;39.60;94830.53;5062480;28;20040;-63
2021/08/17 06:47:44;;;;;;;10.23;4.10;;;;;;;24.37;39.35;94828.00;5064965;28;20048;-63
2021/08/17 06:50:31;;;;;;;4.97;3.83;;;;;;;24.42;38.63;94827.84;5062842;28;20695;-63
2021/08/17 06:52:58;;;;;;;8.93;4.13;;;;;;;24.48;38.78;94828.44;5060551;28;20036;-63
2021/08/17 06:55:25;;;;;;;12.23;3.50;;;;;;;24.64;38.15;94831.38;5061731;28;20037;-64
2021/08/17 06:57:51;;;;;;;6.13;4.05;;;;;;;24.77;38.40;94814.38;5058688;28;20067;-64
2021/08/17 07:00:19;;;;;;;15.10;5.80;;;;;;;24.92;36.88;94811.19;5057244;28;20048;-64
2021/08/17 07:02:46;;;;;;;10.07;8.05;;;;;;;25.00;37.08;94823.66;5061822;28;20101;-63
2021/08/17 07:05:35;;;;;;;6.43;5.00;;;;;;;24.99;37.75;94815.97;5062785;28;20059;-63
2021/08/17 07:08:05;;;;;;;20.60;4.28;;;;;;;25.03;36.96;94818.78;5061106;28;20480;-63
2021/08/17 07:10:36;;;;;;;13.80;4.57;;;;;;;25.05;36.71;94827.22;5062582;28;20047;-63
2021/08/17 07:13:12;;;;;;;17.05;4.53;;;;;;;25.16;37.01;94815.09;5060902;28;20110;-64
2021/08/17 07:15:39;;;;;;;6.43;3.70;;;;;;;25.30;35.16;94818.34;5064075;28;20051;-63
2021/08/17 07:18:06;;;;;;;5.97;4.07;;;;;;;25.20;34.87;94805.34;5061221;28;20044;-64
2021/08/17 07:20:33;;;;;;;9.23;4.25;;;;;;;25.26;35.74;94814.72;5057862;28;20045;-64
2021/08/17 07:23:00;;;;;;;9.95;4.72;;;;;;;25.34;35.58;94805.91;5059297;28;20048;-65
2021/08/17 07:25:27;;;;;;;5.57;3.95;;;;;;;25.51;36.26;94809.53;5061246;28;20094;-64
2021/08/17 07:27:54;;;;;;;6.43;3.97;;;;;;;25.62;35.38;94810.69;5061582;28;20036;-65
2021/08/17 07:30:21;;;;;;;8.43;3.47;;;;;;;25.63;36.55;94806.16;5058897;28;20045;-65
2021/08/17 07:32:48;;;;;;;6.03;3.80;;;;;;;25.69;36.83;94810.94;5064134;28;20566;-65
2021/08/17 07:35:18;;;;;;;4.75;3.65;;;;;;;25.88;34.43;94815.81;5063660;28;20045;-65
2021/08/17 07:37:47;;;;;;;7.22;4.40;;;;;;;26.04;34.48;94820.56;5061042;28;20041;-65
2021/08/17 07:40:15;;;;;;;10.00;4.25;;;;;;;26.19;35.86;94816.47;5064022;28;20040;-65
2021/08/17 07:42:42;;;;;;;7.50;4.05;;;;;;;26.48;34.93;94818.19;5063971;28;20040;-65
2021/08/17 07:45:09;;;;;;;8.48;3.22;;;;;;;26.64;34.68;94815.66;5061602;28;20067;-65
2021/08/17 07:47:38;;;;;;;7.88;3.58;;;;;;;26.65;34.57;94814.53;5064242;28;20036;-65
2021/08/17 07:50:07;;;;;;;8.18;4.22;;;;;;;26.83;34.17;94813.22;5063872;28;20071;-65
2021/08/17 07:52:35;;;;;;;8.63;4.05;;;;;;;26.94;33.55;94807.41;5061591;28;20040;-65
2021/08/17 07:55:04;;;;;;;5.80;4.28;;;;;;;26.92;32.86;94805.09;5061270;28;20051;-65
2021/08/17 07:57:31;;;;;;;7.18;4.07;;;;;;;27.01;32.89;94807.63;5064133;28;20045;-66
2021/08/17 07:59:58;;;;;;;12.88;4.50;;;;;;;27.12;32.63;94800.72;5061539;28;20041;-65
2021/08/17 08:02:30;;;;;;;6.97;4.00;;;;;;;27.14;33.90;94811.84;5062432;28;20056;-65
2021/08/17 08:04:57;;;;;;;6.85;4.22;;;;;;;27.14;32.60;94817.19;5060439;28;20049;-65
2021/08/17 08:07:23;;;;;;;6.45;4.60;;;;;;;27.34;32.21;94809.38;5058904;28;20040;-65
2021/08/17 08:09:50;;;;;;;9.82;3.90;;;;;;;27.52;32.42;94813.34;5059416;28;20561;-65
2021/08/17 08:12:17;;;;;;;7.50;4.10;;;;;;;27.72;31.72;94808.16;5062447;28;20520;-65
2021/08/17 08:14:44;;;;;;;7.38;4.10;;;;;;;27.88;31.56;94803.59;5061631;28;20048;-66
2021/08/17 08:17:12;;;;;;;5.72;4.15;;;;;;;27.75;32.29;94791.38;5059157;28;20050;-66
2021/08/17 08:19:39;;;;;;;12.77;4.03;;;;;;;27.93;33.24;94798.03;5062172;28;20481;-65
2021/08/17 08:22:07;;;;;;;10.18;4.20;;;;;;;27.96;30.92;94797.34;5059538;28;20122;-65
2021/08/17 08:24:34;;;;;;;10.10;4.68;;;;;;;28.14;31.03;94802.38;5059777;28;20165;-66
2021/08/17 08:27:01;;;;;;;7.90;3.88;;;;;;;28.29;32.59;94793.59;5061923;28;20502;-65
2021/08/17 08:29:28;;;;;;;7.72;4.55;;;;;;;28.37;33.24;94795.31;5066363;28;20056;-65
2021/08/17 08:31:55;;;;;;;9.85;5.82;;;;;;;28.62;31.33;94789.81;5066389;28;20044;-66
2021/08/17 08:34:22;;;;;;;10.50;4.22;;;;;;;28.76;31.74;94787.47;5064702;28;20037;-66
2021/08/17 08:36:50;;;;;;;5.78;4.35;;;;;;;29.07;30.24;94788.50;5064740;28;20567;-65
2021/08/17 08:39:18;;;;;;;6.00;4.38;;;;;;;29.28;30.07;94776.69;5063597;28;20044;-65
2021/08/17 08:41:48;;;;;;;8.23;4.47;;;;;;;29.59;29.14;94794.59;5067361;28;20045;-66
2021/08/17 08:44:16;;;;;;;7.93;4.70;;;;;;;29.70;29.81;94776.78;5065160;28;20043;-66
2021/08/17 08:46:43;;;;;;;8.50;4.35;;;;;;;29.98;28.44;94780.38;5065615;28;20036;-65
2021/08/17 08:49:10;;;;;;;7.22;4.40;;;;;;;30.14;29.79;94783.72;5063320;28;20123;-65
2021/08/17 08:51:37;;;;;;;10.80;5.30;;;;;;;30.40;28.27;94774.22;5062971;28;20045;-66
2021/08/17 08:54:07;;;;;;;7.85;4.88;;;;;;;30.64;28.66;94779.19;5063660;28;20073;-66
2021/08/17 08:56:34;;;;;;;7.75;4.68;;;;;;;30.61;28.28;94774.56;5062784;28;20048;-65
2021/08/17 08:59:01;;;;;;;7.15;4.30;;;;;;;30.87;28.30;94775.69;5064701;28;20050;-65
2021/08/17 09:01:28;;;;;;;9.90;5.05;;;;;;;31.16;26.63;94770.72;5066756;28;20063;-66
2021/08/17 09:03:57;;;;;;;8.70;4.90;;;;;;;31.36;26.29;94758.69;5064685;28;20052;-66
2021/08/17 09:06:30;;;;;;;9.65;4.20;;;;;;;31.56;25.52;94761.25;5063345;28;20051;-66
2021/08/17 09:09:16;;;;;;;12.88;5.03;;;;;;;31.54;26.65;94761.59;5061010;28;20047;-66
2021/08/17 09:11:49;;;;;;;7.45;4.70;;;;;;;31.72;27.86;94761.81;5065540;28;20059;-67
2021/08/17 09:14:31;;;;;;;7.72;5.13;;;;;;;31.63;27.46;94758.63;5065313;28;20056;-66
2021/08/17 09:17:02;;;;;;;8.55;5.07;;;;;;;31.85;26.34;94750.78;5063953;28;20129;-66
2021/08/17 09:19:48;;;;;;;8.48;4.75;;;;;;;32.14;25.26;94746.47;5064380;28;20044;-66
2021/08/17 09:22:20;;;;;;;7.47;4.78;;;;;;;32.20;25.51;94745.75;5062282;28;20497;-66
2021/08/17 09:24:58;;;;;;;7.30;4.65;;;;;;;32.16;25.08;94750.34;5062732;28;20066;-66
2021/08/17 09:27:28;;;;;;;8.13;4.75;;;;;;;32.24;25.28;94739.63;5061360;28;20037;-66
2021/08/17 09:30:01;;;;;;;13.00;4.57;;;;;;;32.35;25.81;94745.88;5062937;28;20051;-66
2021/08/17 09:32:27;;;;;;;5.57;4.35;;;;;;;32.45;24.74;94739.81;5065033;28;20044;-66
2021/08/17 09:35:00;;;;;;;9.85;5.43;;;;;;;32.71;24.68;94743.47;5061444;28;20044;-66
2021/08/17 09:37:33;;;;;;;5.10;4.32;;;;;;;32.74;26.43;94735.41;5063352;28;20052;-66
2021/08/17 09:40:02;;;;;;;11.27;4.87;;;;;;;32.88;25.78;94740.13;5064966;28;20036;-66
2021/08/17 09:42:31;;;;;;;16.05;4.70;;;;;;;33.37;25.40;94732.66;5065371;28;20044;-66
2021/08/17 09:45:17;;;;;;;15.48;4.45;;;;;;;33.66;24.10;94728.13;5062128;28;20059;-65
2021/08/17 09:47:53;;;;;;;9.50;4.93;;;;;;;33.68;24.33;94725.81;5065733;28;20036;-66
2021/08/17 09:50:28;;;;;;;7.57;4.80;;;;;;;34.21;23.93;94720.91;5062806;28;20124;-66
2021/08/17 09:53:10;;;;;;;11.68;4.88;;;;;;;34.01;23.98;94723.19;5066374;28;20044;-66
2021/08/17 09:55:46;;;;;;;5.80;4.57;;;;;;;34.45;22.41;94717.44;5066235;28;20057;-66
2021/08/17 09:58:33;;;;;;;12.13;6.10;;;;;;;34.75;22.41;94729.75;5064978;28;20037;-66
2021/08/17 10:01:05;;;;;;;16.25;5.05;;;;;;;35.28;21.97;94728.09;5062478;28;20055;-66
2021/08/17 10:03:34;;;;;;;6.90;5.00;;;;;;;34.56;23.29;94722.06;5064633;28;20390;-66
2021/08/17 10:06:01;;;;;;;10.18;5.13;;;;;;;35.28;21.49;94727.34;5063068;28;20044;-66
2021/08/17 10:08:33;;;;;;;6.72;4.35;;;;;;;35.77;21.16;94720.16;5064679;28;20060;-66
2021/08/17 10:11:01;;;;;;;5.85;4.50;;;;;;;35.32;21.92;94711.84;5061244;28;20045;-66
2021/08/17 10:13:30;;;;;;;6.65;4.60;;;;;;;35.77;21.37;94715.50;5064576;28;20040;-66
2021/08/17 10:15:57;;;;;;;12.82;5.18;;;;;;;36.12;20.83;94723.78;5059062;28;20052;-66
2021/08/17 10:18:26;;;;;;;12.18;5.63;;;;;;;36.23;21.62;94708.25;5063124;28;20386;-66
2021/08/17 10:20:55;;;;;;;7.88;5.80;;;;;;;36.56;20.72;94725.00;5061656;28;20052;-66
2021/08/17 10:23:24;;;;;;;9.65;5.57;;;;;;;36.66;20.99;94718.72;5061536;28;20047;-66
2021/08/17 10:25:57;;;;;;;7.80;4.78;;;;;;;36.82;20.81;94714.69;5062591;28;20054;-66
2021/08/17 10:28:31;;;;;;;14.20;5.00;;;;;;;36.87;20.92;94714.25;5064317;28;20083;-66
2021/08/17 10:31:28;;;;;;;16.88;5.20;;;;;;;37.24;20.09;94712.69;5057647;28;20059;-66
2021/08/17 10:34:11;;;;;;;8.45;5.43;;;;;;;37.54;20.53;94711.94;5061749;28;20056;-66
2021/08/17 10:36:45;;;;;;;11.15;5.10;;;;;;;37.56;19.53;94711.53;5061870;28;20041;-66
2021/08/17 10:39:18;;;;;;;7.03;6.13;;;;;;;37.73;19.36;94710.53;5062498;28;20036;-66
2021/08/17 10:41:47;;;;;;;14.93;5.05;;;;;;;37.99;19.50;94705.50;5063997;28;20523;-66
2021/08/17 10:44:29;;;;;;;8.73;5.45;;;;;;;38.14;19.64;94706.06;5061324;28;20462;-66
2021/08/17 10:46:57;;;;;;;6.22;5.05;;;;;;;38.28;19.50;94705.84;5065172;28;20429;-66
2021/08/17 10:49:31;;;;;;;9.35;5.00;;;;;;;38.29;19.02;94696.50;5060100;28;20449;-66
2021/08/17 10:52:09;;;;;;;8.32;5.00;;;;;;;38.61;18.66;94690.56;5063416;28;20132;-66
2021/08/17 10:54:38;;;;;;;7.35;6.15;;;;;;;38.57;19.04;94686.34;5060806;28;20058;-66
2021/08/17 10:57:14;;;;;;;8.15;5.40;;;;;;;38.46;20.06;94680.31;5063335;28;20059;-66
2021/08/17 10:59:44;;;;;;;8.10;5.80;;;;;;;38.60;19.13;94672.69;5063364;28;20052;-66
2021/08/17 11:02:12;;;;;;;8.77;6.15;;;;;;;38.77;19.05;94670.03;5063489;28;20102;-66
2021/08/17 11:04:44;;;;;;;13.68;6.07;;;;;;;38.74;18.86;94670.88;5063205;28;20056;-66
2021/08/17 11:07:37;;;;;;;8.63;5.88;;;;;;;38.82;18.04;94672.28;5063143;28;20041;-66
2021/08/17 11:10:05;;;;;;;13.55;7.20;;;;;;;38.76;17.62;94666.56;5060820;28;20052;-66
2021/08/17 11:12:38;;;;;;;15.07;8.02;;;;;;;39.02;18.85;94668.81;5063925;28;20047;-66
2021/08/17 11:15:08;;;;;;;13.68;8.27;;;;;;;39.25;17.94;94665.25;5063348;28;20051;-66
2021/08/17 11:17:35;;;;;;;14.68;10.60;;;;;;;39.28;16.58;94650.78;5061755;28;20460;-67
2021/08/17 11:20:04;;;;;;;17.00;13.60;;;;;;;39.17;17.32;94648.28;5063033;28;20044;-66
2021/08/17 11:22:36;;;;;;;20.50;11.30;;;;;;;39.62;17.74;94650.44;5061649;28;20044;-66
2021/08/17 11:25:09;;;;;;;15.93;9.03;;;;;;;39.96;16.82;94662.94;5063107;28;20105;-66
2021/08/17 11:27:40;;;;;;;13.00;8.50;;;;;;;39.84;17.11;94649.97;5064447;28;20048;-66
2021/08/17 11:30:12;;;;;;;16.02;7.88;;;;;;;39.89;17.00;94652.19;5064639;28;20512;-66
2021/08/17 11:32:48;;;;;;;10.80;8.40;;;;;;;40.18;16.67;94656.97;5062799;28;20055;-66
2021/08/17 11:35:19;;;;;;;15.68;9.32;;;;;;;40.35;16.19;94650.31;5062783;28;20488;-66
2021/08/17 11:37:48;;;;;;;10.07;7.90;;;;;;;40.59;16.13;94647.34;5062963;28;20536;-66
2021/08/17 11:40:17;;;;;;;14.00;7.88;;;;;;;40.64;15.57;94644.09;5065786;28;20044;-66
2021/08/17 11:42:46;;;;;;;12.80;8.30;;;;;;;40.72;15.39;94645.44;5063001;28;20048;-66